Weather History for KIJX - February, 2014

Change the Weather History Date:

Saturday, February 22, 2014

  Actual Average (KSPI) Record (KSPI)
Temperature  
Mean Temperature 36 °F 34 °F  
Max Temperature 46 °F 42 °F 71 °F (1922)
Min Temperature 27 °F 25 °F -7 °F (1963)
Degree Days  
Heating Degree Days 28 31  
Month to date heating degree days 765  
Since 1 July heating degree days 4091  
Cooling Degree Days 0 0  
Month to date cooling degree days 0  
Year to date cooling degree days 0  
Moisture  
Dew Point 28 °F    
Average Humidity 74    
Maximum Humidity 92    
Minimum Humidity 56    
Precipitation  
Precipitation 0.00 in 0.07 in 2.37 in (1990)
Month to date precipitation 1.36  
Year to date precipitation 3.18  
Snow  
Snow 0.00 in 0.20 in 2.20 in (2008)
Month to date snowfall 4.5  
Since 1 July snowfall 17.1  
Snow Depth -    
Sea Level Pressure  
Sea Level Pressure 30.00 in    
Wind  
Wind Speed 5 mph (NE)    
Max Wind Speed 16 mph    
Max Gust Speed 18 mph    
Visibility 10 miles    
Events Rain    
T = Trace of Precipitation, MM = Missing Value Source: NWS Daily Summary

Daily Weather History Graph

Daily Weather History Graph

Search for Another Location

Airport or City:

Trip Planner

Search our weather history database for the weather conditions in past years. The results will help you decide how hot, cold, wet, or windy it might be!

Date:

Astronomy

Feb. 22, 2014 Rise Set
Actual Time 6:44 AM CST 5:45 PM CST
Civil Twilight 6:16 AM CST 6:12 PM CST
Nautical Twilight 5:45 AM CST 6:44 PM CST
Astronomical Twilight 5:14 AM CST 7:15 PM CST
Moon 12:39 AM CST (2/22) 10:56 AM CST (2/22)
Length of Visible Light 11h 55m
Length of Day
11h 01m
Waning Gibbous, 50% of the Moon is Illuminated
Feb 22
Waning Gibbous
Mar 1
New
Mar 8
First Quarter
Mar 16
Full
Mar 23
Last Quarter

Hourly Weather History & Observations

Time (CST) Temp. Windchill Dew Point Humidity Pressure Visibility Wind Dir Wind Speed Gust Speed Precip Events Conditions
12:15 AM 37.4 °F 34.9 °F 25.9 °F 63% 29.93 in 10.0 mi WSW 3.5 mph - N/A   Clear
12:35 AM 36.3 °F 31.6 °F 25.9 °F 66% 29.93 in 10.0 mi SW 5.8 mph - N/A   Clear
12:55 AM 34.0 °F - 26.4 °F 74% 29.94 in 10.0 mi Calm Calm - N/A   Clear
1:15 AM 34.2 °F 31.2 °F 26.2 °F 73% 29.94 in 10.0 mi SSW 3.5 mph - N/A   Clear
1:35 AM 32.0 °F - 26.8 °F 81% 29.94 in 10.0 mi Calm Calm - N/A   Clear
1:55 AM 30.2 °F - 25.9 °F 84% 29.94 in 10.0 mi Calm Calm - N/A   Clear
2:15 AM 31.1 °F - 25.7 °F 80% 29.94 in 10.0 mi Calm Calm - N/A   Clear
2:35 AM 30.9 °F - 26.1 °F 82% 29.95 in 10.0 mi Calm Calm - N/A   Clear
2:55 AM 30.6 °F 27.1 °F 25.3 °F 81% 29.95 in 10.0 mi SE 3.5 mph - N/A   Clear
3:15 AM 29.8 °F - 25.9 °F 85% 29.95 in 10.0 mi Calm Calm - N/A   Clear
3:35 AM 30.6 °F 27.1 °F 26.4 °F 85% 29.95 in 10.0 mi SSW 3.5 mph - N/A   Clear
3:55 AM 30.0 °F - 25.2 °F 82% 29.95 in 10.0 mi Calm Calm - N/A   Clear
4:15 AM 28.8 °F - 25.0 °F 86% 29.95 in 10.0 mi Calm Calm - N/A   Clear
4:35 AM 28.6 °F 24.8 °F 25.3 °F 88% 29.96 in 10.0 mi NE 3.5 mph - N/A   Clear
4:55 AM 28.6 °F 23.5 °F 25.2 °F 87% 29.96 in 10.0 mi ENE 4.6 mph - N/A   Clear
5:15 AM 27.5 °F 22.2 °F 24.1 °F 87% 29.96 in 10.0 mi ENE 4.6 mph - N/A   Clear
5:35 AM 28.6 °F 23.5 °F 25.7 °F 89% 29.97 in 10.0 mi East 4.6 mph - N/A   Clear
5:55 AM 29.7 °F 23.7 °F 27.5 °F 92% 29.97 in 10.0 mi East 5.8 mph - N/A   Scattered Clouds
6:15 AM 31.1 °F - 28.2 °F 89% 29.98 in 10.0 mi Calm Calm - N/A   Mostly Cloudy
6:35 AM 31.6 °F 28.3 °F 27.5 °F 85% 29.98 in 10.0 mi SSE 3.5 mph - N/A   Mostly Cloudy
6:55 AM 31.5 °F 28.1 °F 27.9 °F 87% 29.98 in 10.0 mi ENE 3.5 mph - N/A   Scattered Clouds
7:15 AM 31.5 °F 26.8 °F 28.0 °F 87% 29.99 in 10.0 mi ENE 4.6 mph - N/A   Scattered Clouds
7:35 AM 32.9 °F 25.9 °F 29.3 °F 87% 29.99 in 10.0 mi ENE 8.1 mph - N/A   Mostly Cloudy
7:55 AM 34.5 °F 28.6 °F 29.7 °F 82% 30.00 in 10.0 mi ENE 6.9 mph - N/A   Mostly Cloudy
8:15 AM 36.0 °F 30.3 °F 30.4 °F 80% 30.00 in 10.0 mi East 6.9 mph - N/A   Scattered Clouds
8:35 AM 36.9 °F 32.2 °F 31.1 °F 80% 30.01 in 10.0 mi ENE 5.8 mph - N/A   Scattered Clouds
8:55 AM 39.4 °F 35.2 °F 31.5 °F 73% 30.01 in 10.0 mi East 5.8 mph - N/A   Scattered Clouds
9:15 AM 40.3 °F 34.9 °F 31.5 °F 71% 29.99 in 10.0 mi East 8.1 mph - N/A   Scattered Clouds
9:35 AM 41.9 °F 40.0 °F 30.2 °F 63% 30.01 in 10.0 mi ESE 3.5 mph - N/A   Clear
9:55 AM 42.4 °F 40.7 °F 31.3 °F 65% 30.01 in 10.0 mi ENE 3.5 mph - N/A   Scattered Clouds
10:15 AM 42.8 °F 41.1 °F 30.7 °F 62% 30.01 in 10.0 mi NNE 3.5 mph - N/A   Scattered Clouds
10:35 AM 44.8 °F 41.6 °F 30.9 °F 58% 30.01 in 10.0 mi NE 5.8 mph - N/A   Scattered Clouds
10:55 AM 45.5 °F 41.8 °F 31.5 °F 58% 30.01 in 10.0 mi North 6.9 mph - N/A   Scattered Clouds
11:15 AM 46.2 °F 42.7 °F 33.6 °F 61% 30.01 in 10.0 mi NE 6.9 mph - N/A   Scattered Clouds
11:35 AM 46.9 °F - 32.9 °F 58% 30.01 in 10.0 mi NE 9.2 mph - N/A   Scattered Clouds
11:55 AM 46.0 °F 41.0 °F 31.8 °F 58% 30.01 in 10.0 mi NNE 10.4 mph - N/A   Scattered Clouds
12:15 PM 45.5 °F 39.9 °F 31.6 °F 58% 30.00 in 10.0 mi NNE 11.5 mph - N/A   Scattered Clouds
12:35 PM 45.7 °F 39.8 °F 30.7 °F 56% 29.99 in 10.0 mi NE 12.7 mph - N/A   Scattered Clouds
12:55 PM 45.0 °F 38.9 °F 31.5 °F 59% 29.98 in 10.0 mi NNE 12.7 mph - N/A   Scattered Clouds
1:15 PM 43.7 °F 37.3 °F 32.5 °F 65% 29.98 in 10.0 mi NNE 12.7 mph - N/A   Clear
1:35 PM 43.0 °F 37.2 °F 32.0 °F 65% 29.97 in 10.0 mi NNE 10.4 mph - N/A   Clear
1:55 PM 43.7 °F 37.3 °F 32.2 °F 64% 29.97 in 10.0 mi NE 12.7 mph - N/A   Scattered Clouds
2:15 PM 43.5 °F 37.9 °F 32.0 °F 64% 29.96 in 10.0 mi ENE 10.4 mph - N/A   Scattered Clouds
2:35 PM 42.6 °F 37.8 °F 30.2 °F 61% 29.98 in 10.0 mi NNE 8.1 mph - N/A   Scattered Clouds
2:55 PM 42.4 °F 38.8 °F 30.9 °F 64% 29.99 in 10.0 mi NE 5.8 mph - N/A   Clear
3:15 PM 42.4 °F 37.0 °F 31.8 °F 66% 30.00 in 10.0 mi NNE 9.2 mph - N/A   Clear
3:35 PM 41.7 °F 36.7 °F 31.8 °F 68% 30.00 in 10.0 mi NE 8.1 mph - N/A   Scattered Clouds
3:55 PM 41.0 °F 38.0 °F 32.0 °F 70% 30.02 in 10.0 mi ENE 4.6 mph - N/A   Clear
4:15 PM 40.5 °F 36.5 °F 32.2 °F 72% 30.01 in 10.0 mi NE 5.8 mph - N/A Rain Light Rain
4:35 PM 39.4 °F 33.2 °F 32.0 °F 75% 29.99 in 10.0 mi NE 9.2 mph - N/A Rain Light Rain
4:55 PM 38.3 °F 33.2 °F 32.0 °F 78% 29.98 in 10.0 mi NNE 6.9 mph - N/A Rain Light Rain
5:15 PM 37.8 °F 30.2 °F 31.6 °F 79% 29.98 in 10.0 mi NNE 11.5 mph - N/A Rain Light Rain
5:35 PM 37.2 °F 30.0 °F 31.8 °F 81% 29.99 in 10.0 mi NNE 10.4 mph - N/A Rain Light Rain
5:55 PM 36.5 °F 27.0 °F 31.1 °F 81% 30.00 in 10.0 mi North 16.1 mph - N/A   Overcast
6:15 PM 35.8 °F 27.3 °F 30.2 °F 80% 30.01 in 10.0 mi NNE 12.7 mph - N/A Rain Light Rain
6:35 PM 35.4 °F 27.3 °F 29.5 °F 79% 30.02 in 10.0 mi North 11.5 mph 18.4 mph N/A   Overcast
6:50 PM 35.2 °F 27.1 °F 28.8 °F 77% 30.04 in 10.0 mi North 11.5 mph - N/A   Mostly Cloudy
7:15 PM 34.0 °F 26.0 °F 27.9 °F 78% 30.04 in 10.0 mi North 10.4 mph - N/A   Scattered Clouds
7:35 PM 33.4 °F 25.9 °F 27.9 °F 80% 30.04 in 10.0 mi NNE 9.2 mph - N/A   Scattered Clouds
7:55 PM 33.3 °F 25.7 °F 28.2 °F 82% 30.04 in 10.0 mi NNE 9.2 mph - N/A   Scattered Clouds
8:15 PM 32.9 °F 25.9 °F 28.0 °F 82% 30.05 in 10.0 mi North 8.1 mph - N/A   Scattered Clouds
8:35 PM 32.5 °F 26.2 °F 26.6 °F 79% 30.06 in 10.0 mi North 6.9 mph - N/A   Scattered Clouds
8:55 PM 32.2 °F 25.8 °F 26.6 °F 80% 30.07 in 10.0 mi NNE 6.9 mph - N/A   Scattered Clouds
9:15 PM 32.0 °F 24.8 °F 27.0 °F 82% 30.06 in 10.0 mi NNE 8.1 mph - N/A   Clear
9:35 PM 32.0 °F 24.8 °F 27.0 °F 82% 30.07 in 10.0 mi North 8.1 mph - N/A   Clear
9:55 PM 32.0 °F 25.6 °F 26.1 °F 79% 30.08 in 10.0 mi North 6.9 mph - N/A   Clear
10:15 PM 31.6 °F 23.7 °F 24.8 °F 76% 30.09 in 10.0 mi North 9.2 mph - N/A   Clear
10:35 PM 31.5 °F 23.5 °F 23.7 °F 73% 30.09 in 10.0 mi North 9.2 mph - N/A   Clear
10:55 PM 31.1 °F 23.7 °F 20.5 °F 65% 30.10 in 10.0 mi North 8.1 mph - N/A   Clear
11:15 PM 30.9 °F 24.3 °F 18.1 °F 59% 30.10 in 10.0 mi North 6.9 mph - N/A   Clear
11:30 PM 30.2 °F 25.4 °F 17.8 °F 60% 30.10 in 10.0 mi North 4.6 mph - N/A   Clear
11:55 PM 29.3 °F 25.6 °F 18.3 °F 64% 30.09 in 10.0 mi NNE 3.5 mph - N/A   Clear